19h23 EST


 

Suivi/Infos de l'aéroport


-ou-


 

Suivi des vols en temps réelBallard Aviation D/B/A Eaglemed #24

Thumbnail
EMD24
Ballard Aviation D/B/A Eaglemed "Eaglemed" (tous les vols)
Centennial ( – info)
Denver, CO
Goodland Municipal ( – info)
Goodland, KS
10h26 MST
11h09 MST
Prévu: 10h26 MST
Prévu: 11h26 MST
Durée: 43 minutes
mercredi, 4 mars 2015
Statut A atterri il y a plus de 6 heures (journal de vol & graphique)
Avion Beechcraft King Air 90 (bi-turbopropulseur) (BE9L/G – photos)
Vitesse Plan de vol: 147 kts (graphique)
Altitude (graphique)
Distance En ligne droite 272 km    Prévue 298 km    Parcourue 433 km
Route PLAIN7 GLD (Décoder)
JOURNAL DE L'ACTIVITE
Vous voulez une recherche complète sur l'historique de EMD24 depuis 1998? Achetez maintenant. Recevez-le dans l'heure.
Date Avion Provenance Destination Départ Arrivée Durée
04-03-2015 BE9L/GCentennial ()Goodland Municipal () 10h26 MST 11h09 MST 0:43
04-03-2015 BE9L/GGoodland Municipal ()Centennial () 08h59 MST 09h59 MST 1:00
04-03-2015 BE9L/GCentennial ()Goodland Municipal () 07h27 MST 08h07 MST 0:40
04-03-2015 BE9L/GGoodland Municipal ()Centennial () 05h18 MST 06h17 MST 0:59
04-03-2015 BE9L/GWichita ()Goodland Municipal () 03h04 CST 03h31 MST 1:27
04-03-2015 BE9L/GScott City Muni ()Wichita () 00h01 CST 00h50 CST 0:49
03-03-2015 BE9L/GGoodland Municipal ()Scott City Muni () 21h40 MST 23h12 CST 0:32
03-03-2015 BE9L/GHays Rgnl ()Goodland Municipal () 12h41 CST 12h22 MST 0:40
03-03-2015 BE9L/GGoodland Municipal ()Hays Rgnl () 09h39 MST 11h15 CST 0:36
03-03-2015 BE9L/GKearney Rgnl ()Goodland Municipal () 02h28 CST 02h29 MST 1:01
03-03-2015 BE9L/GAtwood County ()Kearney Rgnl () 00h45 CST 01h18 CST 0:33
02-03-2015 BE9L/GGoodland Municipal ()Atwood County () 22h42 MST 00h01 CST (+1) 0:19
02-03-2015 BE9L/GGoodland Municipal ()Goodland Municipal () 20h09 MST 20h27 MST 0:18
02-03-2015 BE9L/GHays Rgnl ()Goodland Municipal () 04h32 CST 04h07 MST 0:35
02-03-2015 BE9L/GHays Rgnl ()Centennial () 04h32 CST Dérouté
02-03-2015 BE9LR GLD 81 36Hays Rgnl () 09h06 UTC 03h31 CST 0:24
02-03-2015 BE9L/GCentennial ()Shalz Field () 00h13 MST 01h58 CST 0:45
02-03-2015 BE9L/GCentennial ()Goodland Municipal () 00h13 MST Dérouté
01-03-2015 BE9L/GWestern Neb Rgnl ()Centennial () 21h32 MST 22h24 MST 0:52
01-03-2015 BE9L/GGoodland Municipal ()Western Neb Rgnl () 19h37 MST 20h30 MST 0:53
01-03-2015 BE9L/GWestern Neb Rgnl ()Goodland Municipal () 17h44 MST 18h30 MST 0:46
01-03-2015 BE9L/GChadron Muni ()Western Neb Rgnl () 16h30 MST 16h48 MST 0:18
01-03-2015 BE9L/GGoodland Municipal ()Chadron Muni () 14h31 MST 15h37 MST 1:06
01-03-2015 BE9L/GGoodland Municipal ()Kit Carson County () 14h31 MST Dérouté
28-02-2015 BE9L/GHays Rgnl ()Goodland Municipal () 14h42 CST 14h22 MST 0:40
28-02-2015 BE9L/GShalz Field ()Hays Rgnl () 13h21 CST 13h43 CST 0:22
28-02-2015 BE9L/GGoodland Municipal ()Shalz Field () 10h51 MST 12h07 CST 0:16
28-02-2015 BE9L/GCentennial ()Goodland Municipal () 04h40 MST 05h24 MST 0:44
28-02-2015 BE9L/GLamar Muni ()Centennial () 02h16 MST 02h57 MST 0:41
28-02-2015 BE9L/GGoodland Municipal ()Lamar Muni () 00h27 MST 00h58 MST 0:31
27-02-2015 BE9L/GSalina Rgnl ()Goodland Municipal () 19h35 CST 19h36 MST 1:01
27-02-2015 BE9L/GCheyenne County Muni ()Salina Rgnl () 17h42 CST 18h33 CST 0:51
27-02-2015 BE9L/GGoodland Municipal ()Cheyenne County Muni () 14h48 MST 16h05 CST 0:17
27-02-2015 BE9L/GHays Rgnl ()Goodland Municipal () 13h08 CST 12h45 MST 0:37
27-02-2015 BE9L/GGoodland Municipal ()Hays Rgnl () 10h08 MST 11h46 CST 0:38
27-02-2015 BE9L/GCentennial ()Goodland Municipal () 01h20 MST 02h02 MST 0:42
26-02-2015 BE9L/GGoodland Municipal ()Centennial () 22h17 MST 23h10 MST 0:53
26-02-2015 BE9L/GCentennial ()Goodland Municipal () 16h49 MST 17h30 MST 0:41
26-02-2015 BE9L/GKit Carson County ()Centennial () 13h17 MST 14h01 MST 0:44
26-02-2015 BE9L/GGoodland Municipal ()Kit Carson County () 12h17 MST 12h27 MST 0:10
26-02-2015 BE9L/GHays Rgnl ()Goodland Municipal () 04h41 CST 04h21 MST 0:40
26-02-2015 BE9L/GGoodland Municipal ()Hays Rgnl () 02h01 MST 03h39 CST 0:38
25-02-2015 BE9L/GHays Rgnl ()Goodland Municipal () 19h16 CST 18h58 MST 0:42
25-02-2015 BE9L/GShalz Field ()Hays Rgnl () 17h52 CST 18h12 CST 0:19
25-02-2015 BE9L/GCentennial ()Goodland Municipal () 02h21 MST 03h01 MST 0:40
25-02-2015 BE9L/GOakley Muni ()Centennial () 00h41 CST 00h39 MST 0:58
23-02-2015 BE9L/GColorado Sprgs Muni ()Goodland Municipal () 23h45 MST 00h28 MST (+1) 0:43
23-02-2015 BE9L/GGoodland Municipal ()Colorado Sprgs Muni () 21h10 MST 22h03 MST 0:53
23-02-2015 BE9L/GHays Rgnl ()Goodland Municipal () 00h32 CST 00h15 MST 0:43
22-02-2015 BE9L/GOakley Muni ()Hays Rgnl () 22h55 CST 23h33 CST 0:38
22-02-2015 BE9L/GGoodland Municipal ()Oakley Muni () 20h31 MST 21h48 CST (?) 0:17
22-02-2015 BE9L/GHays Rgnl ()Goodland Municipal () 14h12 CST 13h52 MST 0:40
22-02-2015 BE9L/GGoodland Municipal ()Hays Rgnl () 11h38 MST 13h16 CST 0:38
22-02-2015 BE9L/GWichita ()Goodland Municipal () 08h50 CST 09h04 MST 1:14
21-02-2015 BE9L/GOakley Muni ()Wichita () 15h11 CST 16h05 CST 0:54
21-02-2015 BE9L/GOakley Muni ()Oakley Muni () 13h35 CST 13h57 CST 0:22
21-02-2015 BE9L/GOakley Muni ()Wichita () 13h35 CST Dérouté
21-02-2015 BE9L/GGreeley-Weld County ()Goodland Municipal () 10h53 MST 11h38 MST 0:45
21-02-2015 BE9L/GSterling Muni ()Greeley-Weld County () 09h17 MST 09h40 MST 0:23
21-02-2015 BE9L/GGoodland Municipal ()Sterling Muni () 07h26 MST 08h01 MST 0:35
20-02-2015 BE9L/GFt Collins Regional ()Goodland Municipal () 13h57 MST 14h43 MST 0:46
20-02-2015 BE9L/GShalz Field ()Ft Collins Regional () 12h48 CST 12h51 MST 1:03
19-02-2015 BE9L/GCentennial ()Goodland Municipal () 12h42 MST 13h52 MST 1:10
19-02-2015 BE9L/GKit Carson County ()Centennial () 09h43 MST 10h22 MST 0:39
Les membres inscrits (l'inscription est gratuite et facile!) voient 4 months d'historique. S'inscrire